ADDS METAR Data INFO
IDs: Format: Raw Decoded Include TAF

Data at: 0213 UTC 17 Aug 2018

PAHO 170153Z 26012G16KT 10SM BKN065 12/09 A3002 RMK AO2 SLP167 T01220089
PAHO 170053Z 26011G16KT 10SM BKN070 13/09 A3002 RMK AO2 SLP165 T01280089
PAHO 162353Z 25013KT 10SM BKN070 13/09 A3002 RMK AO2 SLP166 T01280089 10150 20117 53003
PAHO 162253Z 25010KT 10SM BKN065 14/09 A3002 RMK AO2 SLP164 T01390089
PAHO 162153Z 25003KT 10SM BKN060 14/08 A3001 RMK AO2 SLP163 T01390078
PAHO 162053Z 22006KT 10SM SCT060 14/09 A3001 RMK AO2 SLP163 T01390089 53002
PAHO 161953Z 16003KT 10SM CLR 14/08 A3001 RMK AO2 SLP162 T01440083
PAHO 161853Z 11003KT 10SM CLR 13/08 A3001 RMK AO2 SLP161 T01330083
PAHO 161753Z 10004KT 10SM CLR 12/09 A3001 RMK AO2 SLP161 T01220094 10122 20089 51005
PAHO 161653Z 00000KT 10SM CLR 12/09 A3000 RMK AO2 SLP160 T01220089
PAHO 161553Z 00000KT 10SM FEW060 10/08 A3000 RMK AO2 SLP158 T01000078
PAHO 161453Z 00000KT 10SM FEW050 BKN065 09/08 A2999 RMK AO2 SLP156 T00940078 53002
PAHO 161353Z AUTO 04003KT 10SM OVC055 10/08 A2999 RMK AO2 SLP154 T01000083 TSNO
PAHO 161253Z AUTO 00000KT 10SM OVC047 11/08 A2998 RMK AO2 SLP153 T01060083 TSNO
PAHO 161153Z AUTO 00000KT 10SM OVC060 11/08 A2999 RMK AO2 SLP154 60000 T01110083 10117 20106 51002 TSNO
PAHO 161053Z AUTO 03005KT 10SM OVC060 11/08 A2998 RMK AO2 SLP153 T01060083 TSNO
PAHO 160953Z AUTO 05003KT 10SM OVC060 11/08 A2999 RMK AO2 SLP155 T01060083 TSNO
PAHO 160853Z AUTO 08003KT 10SM OVC060 11/08 A2998 RMK AO2 SLP152 60000 T01060083 401560106 51002 TSNO
PAHO 160753Z AUTO 00000KT 10SM SCT032 OVC043 11/08 A2998 RMK AO2 RAE0655 SLP152 P0000 T01110083 TSNO
PAHO 160653Z AUTO 00000KT 10SM -RA OVC036 12/08 A2998 RMK AO2 RAB0557E07B45 SLP153 P0000 T01170078 TSNO
PAHO 160553Z AUTO 23004KT 10SM BKN037 OVC060 12/08 A2997 RMK AO2 SLP150 T01170078 10156 20117 53010 TSNO
PAHO 160453Z 26007KT 10SM OVC037 12/07 A2996 RMK AO2 SLP146 T01220072
PAHO 160353Z 25007KT 10SM BKN037 OVC047 13/07 A2995 RMK AO2 SLP142 T01330072
PAHO 160253Z 27006KT 10SM SCT045 BKN055 14/06 A2995 RMK AO2 SLP141 T01440056 55006
PAHO 160153Z 26006KT 10SM CLR 14/06 A2994 RMK AO2 SLP139 T01440061
PAHO 160053Z 27010KT 10SM OVC049 14/06 A2996 RMK AO2 SLP144 T01390061
PAHO 152353Z 26011KT 10SM CLR 13/06 A2996 RMK AO2 SLP147 T01330061 10156 20128 53003
PAHO 152253Z 26009KT 10SM CLR 15/08 A2996 RMK AO2 SLP145 T01500078
PAHO 152153Z 26009KT 10SM CLR 14/07 A2996 RMK AO2 SLP144 T01390072
PAHO 152053Z 26007KT 10SM CLR 14/07 A2995 RMK AO2 SLP144 T01390072 50000
PAHO 151953Z 27010KT 10SM CLR 14/07 A2996 RMK AO2 SLP146 T01390072
PAHO 151853Z 27008KT 10SM CLR 13/07 A2996 RMK AO2 SLP146 T01330072
PAHO 151753Z 26007KT 10SM CLR 13/07 A2996 RMK AO2 SLP144 T01330072 10133 20106 51007
PAHO 151653Z 24008KT 10SM CLR 12/07 A2995 RMK AO2 SLP143 T01220072
PAHO 151553Z 23008KT 10SM CLR 12/07 A2994 RMK AO2 SLP139 T01170072
PAHO 151453Z 22010KT 10SM CLR 11/07 A2993 RMK AO2 SLP137 T01110072 53005